^^
Meteo Knjazevac Station Historical Data
Daily Summary for May 28, 2021 Units:  English    Metric   Both
Daily Weekly Monthly Yearly Custom
  High: Low: Average:
Temperature: 61.5 °F 59.9 °F 60.9 °F
Dew Point: 59.1 °F 58 °F 58.5 °F
Humidity: 94% 89% 92%
Wind Speed: 5mph 0mph 1.5mph
Wind Gust: 12mph - -
Wind- - SSW
Pressure: 30.12 in 30.11 in -
Precipitation: 0.00 in    
Historical Graphs
 
 
Tabular Data for May 28, 2021
Time Temperature Dew Point Pressure Wind Wind Speed Wind Gust Humidity Rainfall Rate (Hourly) solar Conditions
00:00 61 °F 58.3 °F 30.12 in Calm   7 mph 91% 0.00 in 0 W/m2
00:10 61 °F 58 °F 30.12 in East 5 mph 8 mph 90% 0.00 in 0 W/m2
00:20 61.2 °F 58.5 °F 30.12 in ESE 2 mph 5 mph 91% 0.00 in 0 W/m2
00:30 61.2 °F 58.2 °F 30.12 in SE 1 mph 8 mph 90% 0.00 in 0 W/m2
00:40 61.2 °F 58.2 °F 30.12 in ESE 5 mph 12 mph 90% 0.00 in 0 W/m2
00:50 61.3 °F 58.1 °F 30.12 in Calm   11 mph 89% 0.00 in 0 W/m2
01:00 61.3 °F 58.1 °F 30.12 in East 5 mph 7 mph 89% 0.00 in 0 W/m2
01:10 61.5 °F 58.2 °F 30.12 in East 1 mph 6 mph 89% 0.00 in 0 W/m2
01:20 61.5 °F 58.6 °F 30.12 in South 1 mph 6 mph 90% 0.00 in 0 W/m2
01:30 61.5 °F 58.9 °F 30.12 in South 1 mph 2 mph 91% 0.00 in 0 W/m2
01:40 61.2 °F 59.1 °F 30.12 in SW 2 mph 3 mph 93% 0.00 in 0 W/m2
01:50 61 °F 58.9 °F 30.12 in Calm   3 mph 93% 0.00 in 0 W/m2
02:00 60.8 °F 58.8 °F 30.12 in Calm   1 mph 93% 0.00 in 0 W/m2
02:10 60.8 °F 59.1 °F 30.11 in NW 1 mph 2 mph 94% 0.00 in 0 W/m2
02:20 60.6 °F 58.6 °F 30.11 in NNW 1 mph 3 mph 93% 0.00 in 0 W/m2
02:30 60.6 °F 58.9 °F 30.11 in NNW 2 mph 2 mph 94% 0.00 in 0 W/m2
02:40 60.4 °F 58.7 °F 30.11 in NNW 1 mph 4 mph 94% 0.00 in 0 W/m2
02:50 60.4 °F 58.7 °F 30.11 in Calm   5 mph 94% 0.00 in 0 W/m2
03:00 60.3 °F 58.5 °F 30.11 in Calm   2 mph 94% 0.00 in 0 W/m2
03:10 59.9 °F 58.2 °F 30.11 in SW 1 mph 2 mph 94% 0.00 in 0 W/m2
Knjazevac, Serbia
Compliments of Weather Underground - 2 mb